createdAt,value
2019-01-19T00:01:38.158Z,16.42
2019-01-19T00:04:54.309Z,15.85
2019-01-19T00:08:03.104Z,16.15
2019-01-19T00:11:11.829Z,17.40
2019-01-19T00:13:55.742Z,16.77
2019-01-19T00:16:58.159Z,16.70
2019-01-19T00:20:04.393Z,16.77
2019-01-19T00:23:10.542Z,17.87
2019-01-19T00:26:41.846Z,17.82
2019-01-19T00:29:55.355Z,18.48
2019-01-19T00:32:55.013Z,19.15
2019-01-19T00:36:07.455Z,19.00
2019-01-19T00:39:05.161Z,18.02
2019-01-19T00:42:09.439Z,19.57
2019-01-19T00:45:16.009Z,19.17
2019-01-19T00:48:21.625Z,19.92
2019-01-19T00:51:19.795Z,19.03
2019-01-19T00:53:58.039Z,18.37
2019-01-19T00:56:49.953Z,20.07
2019-01-19T00:59:26.130Z,19.62
2019-01-19T01:02:41.035Z,19.02
2019-01-19T01:05:32.031Z,19.37
2019-01-19T01:08:30.864Z,20.02
2019-01-19T01:11:37.679Z,19.35
2019-01-19T01:15:06.291Z,20.03
2019-01-19T01:18:07.580Z,20.63
2019-01-19T01:21:18.657Z,19.98
2019-01-19T01:24:23.448Z,20.37
2019-01-19T01:27:17.584Z,20.50
2019-01-19T01:30:34.123Z,20.32
2019-01-19T01:33:27.455Z,18.95
2019-01-19T01:36:39.890Z,18.67
2019-01-19T01:39:48.430Z,19.73
2019-01-19T01:43:00.518Z,18.45
2019-01-19T01:45:47.416Z,19.05
2019-01-19T01:48:44.974Z,19.85
2019-01-19T01:51:51.028Z,18.50
2019-01-19T01:54:54.812Z,19.17
2019-01-19T01:57:52.016Z,19.27
2019-01-19T02:00:51.307Z,20.05
2019-01-19T02:04:00.638Z,20.48
2019-01-19T02:06:51.644Z,21.45
2019-01-19T02:09:39.494Z,20.57
2019-01-19T02:12:52.286Z,18.95
2019-01-19T02:15:43.700Z,20.95
2019-01-19T02:18:48.846Z,18.75
2019-01-19T02:22:14.464Z,19.48
2019-01-19T02:25:16.621Z,20.20
2019-01-19T02:27:59.299Z,20.00
2019-01-19T02:31:27.714Z,20.15
2019-01-19T02:34:19.271Z,21.68
2019-01-19T02:37:42.057Z,21.23
2019-01-19T02:41:04.849Z,20.20
2019-01-19T02:44:19.545Z,20.80
2019-01-19T02:47:29.942Z,20.95
2019-01-19T02:50:40.239Z,20.15
2019-01-19T02:53:44.332Z,19.17
2019-01-19T02:56:28.443Z,19.50
2019-01-19T02:59:22.821Z,21.15
2019-01-19T03:02:41.093Z,20.72
2019-01-19T03:05:44.184Z,20.90
2019-01-19T03:08:50.477Z,21.30
2019-01-19T03:11:39.067Z,20.37
2019-01-19T03:15:01.613Z,20.23
2019-01-19T03:17:48.027Z,21.05
2019-01-19T03:21:06.247Z,21.55
2019-01-19T03:24:07.401Z,19.52
2019-01-19T03:27:36.352Z,20.02
2019-01-19T03:30:52.829Z,19.00
2019-01-19T03:33:38.396Z,19.40
2019-01-19T03:37:06.958Z,19.60
2019-01-19T03:40:09.563Z,19.82
2019-01-19T03:43:16.668Z,20.55
2019-01-19T03:46:37.786Z,20.72
2019-01-19T03:49:51.016Z,19.60
2019-01-19T03:53:14.851Z,19.90
2019-01-19T03:56:40.392Z,20.05
2019-01-19T03:59:32.106Z,21.02
2019-01-19T04:02:42.557Z,18.32
2019-01-19T04:05:43.649Z,20.30
2019-01-19T04:09:03.361Z,21.23
2019-01-19T04:12:06.201Z,19.82
2019-01-19T04:14:51.603Z,20.68
2019-01-19T04:17:57.867Z,21.05
2019-01-19T04:21:06.353Z,20.02
2019-01-19T04:23:35.782Z,20.80
2019-01-19T04:26:11.326Z,20.45
2019-01-19T04:28:40.952Z,22.37
2019-01-19T04:31:10.418Z,20.97
2019-01-19T04:33:39.886Z,22.00
2019-01-19T04:36:10.500Z,21.03
2019-01-19T04:38:41.498Z,21.33
2019-01-19T04:41:10.924Z,23.27
2019-01-19T04:43:40.388Z,21.87
2019-01-19T04:46:09.863Z,21.20
2019-01-19T04:48:39.721Z,21.30
2019-01-19T04:51:09.158Z,21.35
2019-01-19T04:53:38.600Z,21.57
2019-01-19T04:56:11.195Z,19.93
2019-01-19T04:58:40.649Z,21.48
2019-01-19T05:01:10.131Z,21.77
2019-01-19T05:03:40.599Z,21.62
2019-01-19T05:06:12.410Z,21.68
2019-01-19T05:08:41.131Z,22.48
2019-01-19T05:11:10.567Z,20.95
2019-01-19T05:13:40.053Z,22.55
2019-01-19T05:16:09.525Z,22.13
2019-01-19T05:18:39.009Z,19.77
2019-01-19T05:21:08.563Z,20.25
2019-01-19T05:23:38.380Z,19.57
2019-01-19T05:26:07.806Z,21.15
2019-01-19T05:28:37.264Z,19.30
2019-01-19T05:31:06.670Z,20.30
2019-01-19T05:33:36.104Z,20.02
2019-01-19T05:36:05.609Z,19.23
2019-01-19T05:38:35.034Z,21.20
2019-01-19T05:41:04.489Z,20.10
2019-01-19T05:43:33.988Z,20.60
2019-01-19T05:46:03.395Z,18.32
2019-01-19T05:48:32.838Z,13.53
2019-01-19T05:51:02.307Z,20.12
2019-01-19T05:53:31.842Z,19.80
2019-01-19T05:56:01.243Z,20.55
2019-01-19T05:58:32.977Z,19.62
2019-01-19T06:01:02.448Z,16.70
2019-01-19T06:03:31.931Z,19.42
2019-01-19T06:06:02.088Z,18.12
2019-01-19T06:08:31.556Z,18.60
2019-01-19T06:11:01.025Z,19.10
2019-01-19T06:13:30.474Z,17.48
2019-01-19T06:15:59.913Z,17.05
2019-01-19T06:18:30.971Z,16.85
2019-01-19T06:21:00.444Z,16.03
2019-01-19T06:23:29.881Z,17.48
2019-01-19T06:25:59.370Z,14.70
2019-01-19T06:28:28.781Z,15.58
2019-01-19T06:30:58.255Z,15.47
2019-01-19T06:33:27.678Z,15.80
2019-01-19T06:35:57.322Z,17.87
2019-01-19T06:38:27.072Z,16.70
2019-01-19T06:40:57.067Z,18.02
2019-01-19T06:43:26.581Z,16.02
2019-01-19T06:45:56.494Z,17.73
2019-01-19T06:48:25.978Z,17.10
2019-01-19T06:50:55.786Z,17.30
2019-01-19T06:53:25.240Z,16.12
2019-01-19T06:55:54.742Z,17.60
2019-01-19T06:58:24.198Z,19.02
2019-01-19T07:00:53.701Z,18.73
2019-01-19T07:03:23.109Z,15.55
2019-01-19T07:05:52.606Z,15.68
2019-01-19T07:08:22.172Z,15.15
2019-01-19T07:10:51.608Z,16.67
2019-01-19T07:13:21.129Z,16.57
2019-01-19T07:15:50.574Z,16.07
2019-01-19T07:18:20.384Z,16.87
2019-01-19T07:20:49.944Z,16.42
2019-01-19T07:23:19.452Z,16.82
2019-01-19T07:25:48.955Z,15.95
2019-01-19T07:28:18.410Z,16.12
2019-01-19T07:30:48.012Z,14.45
2019-01-19T07:33:17.549Z,14.35
2019-01-19T07:35:47.041Z,14.78
2019-01-19T07:38:16.490Z,13.50
2019-01-19T07:40:45.965Z,12.58
2019-01-19T07:43:16.327Z,14.30
2019-01-19T07:45:45.925Z,14.85
2019-01-19T07:48:15.516Z,14.80
2019-01-19T07:50:45.006Z,14.23
2019-01-19T07:53:14.445Z,15.40
2019-01-19T07:55:44.009Z,15.10
2019-01-19T07:58:13.446Z,14.87
2019-01-19T08:00:43.089Z,14.73
2019-01-19T08:03:12.547Z,14.85
2019-01-19T08:05:42.101Z,13.95
2019-01-19T08:08:11.605Z,13.60
2019-01-19T08:10:41.207Z,14.70
2019-01-19T08:13:10.693Z,14.63
2019-01-19T08:15:40.161Z,15.40
2019-01-19T08:18:09.619Z,15.28
2019-01-19T08:20:39.061Z,15.50
2019-01-19T08:23:08.546Z,14.75
2019-01-19T08:25:38.057Z,14.20
2019-01-19T08:28:07.482Z,14.73
2019-01-19T08:30:36.936Z,13.48
2019-01-19T08:33:06.411Z,12.88
2019-01-19T08:35:36.335Z,14.07
2019-01-19T08:38:05.899Z,13.05
2019-01-19T08:40:36.821Z,10.80
2019-01-19T08:43:25.837Z,13.00
2019-01-19T08:45:55.427Z,12.93
2019-01-19T08:48:24.958Z,12.68
2019-01-19T08:50:54.425Z,15.53
2019-01-19T08:53:23.845Z,16.67
2019-01-19T08:55:54.790Z,12.13
2019-01-19T08:58:24.204Z,16.35
2019-01-19T09:00:53.640Z,15.75
2019-01-19T09:03:24.065Z,16.12
2019-01-19T09:05:53.599Z,15.70
2019-01-19T09:08:23.061Z,13.72
2019-01-19T09:10:52.503Z,13.85
2019-01-19T09:13:21.948Z,14.43
2019-01-19T09:15:53.527Z,14.18
2019-01-19T09:18:23.010Z,10.20
2019-01-19T09:20:54.026Z,11.15
2019-01-19T09:23:33.422Z,10.93
2019-01-19T09:26:02.863Z,10.18
2019-01-19T09:28:32.828Z,12.43
2019-01-19T09:31:02.414Z,12.40
2019-01-19T09:33:31.886Z,12.05
2019-01-19T09:36:01.380Z,12.53
2019-01-19T09:38:30.830Z,12.98
2019-01-19T09:41:00.282Z,13.45
2019-01-19T09:43:29.779Z,13.00
2019-01-19T09:45:59.355Z,14.07
2019-01-19T09:48:28.808Z,13.72
2019-01-19T09:50:58.298Z,13.83
2019-01-19T09:53:27.779Z,14.58
2019-01-19T09:55:57.292Z,14.53
2019-01-19T09:58:26.756Z,15.05
2019-01-19T10:00:56.196Z,15.25
2019-01-19T10:03:25.699Z,15.60
2019-01-19T10:05:55.099Z,15.18
2019-01-19T10:08:24.596Z,14.87
2019-01-19T10:10:54.191Z,13.78
2019-01-19T10:13:23.665Z,13.23
2019-01-19T10:15:53.878Z,13.60
2019-01-19T10:18:23.940Z,10.13
2019-01-19T10:20:53.466Z,14.15
2019-01-19T10:23:24.272Z,13.38
2019-01-19T10:25:53.734Z,15.08
2019-01-19T10:28:23.372Z,14.53
2019-01-19T10:30:54.183Z,14.80
2019-01-19T10:33:23.607Z,15.97
2019-01-19T10:35:55.680Z,16.67
2019-01-19T10:38:25.324Z,15.77
2019-01-19T10:40:54.796Z,15.88
2019-01-19T10:43:24.475Z,16.97
2019-01-19T10:45:53.957Z,18.40
2019-01-19T10:48:23.633Z,17.17
2019-01-19T10:50:53.089Z,17.42
2019-01-19T10:53:22.623Z,16.67
2019-01-19T10:55:53.252Z,15.95
2019-01-19T10:58:22.905Z,17.12
2019-01-19T11:00:52.445Z,16.05
2019-01-19T11:03:22.146Z,16.67
2019-01-19T11:05:51.719Z,16.10
2019-01-19T11:08:21.367Z,15.00
2019-01-19T11:10:51.030Z,13.95
2019-01-19T11:13:20.544Z,12.15
2019-01-19T11:15:49.987Z,12.82
2019-01-19T11:18:19.489Z,12.20
2019-01-19T11:20:49.069Z,11.80
2019-01-19T11:23:18.485Z,12.75
2019-01-19T11:25:48.005Z,12.93
2019-01-19T11:28:17.519Z,14.20
2019-01-19T11:30:46.963Z,15.05
2019-01-19T11:33:16.469Z,13.80
2019-01-19T11:35:46.028Z,14.47
2019-01-19T11:38:20.033Z,15.93
2019-01-19T11:40:46.626Z,16.20
2019-01-19T11:43:16.094Z,15.72
2019-01-19T11:45:46.008Z,15.50
2019-01-19T11:48:15.463Z,15.72
2019-01-19T11:50:44.986Z,15.70
2019-01-19T11:53:14.377Z,17.25
2019-01-19T11:55:43.856Z,18.00
2019-01-19T11:58:13.297Z,17.37
2019-01-19T12:00:42.816Z,12.75
2019-01-19T12:03:12.439Z,13.32
2019-01-19T12:05:41.878Z,13.03
2019-01-19T12:08:19.185Z,12.90
2019-01-19T12:10:43.564Z,12.50
2019-01-19T12:13:13.044Z,14.68
2019-01-19T12:15:54.059Z,15.12
2019-01-19T12:18:24.786Z,15.28
2019-01-19T12:20:54.555Z,13.43
2019-01-19T12:23:24.022Z,14.40
2019-01-19T12:25:53.840Z,14.05
2019-01-19T12:28:23.330Z,13.88
2019-01-19T12:30:52.803Z,13.68
2019-01-19T12:33:22.322Z,14.18
2019-01-19T12:35:51.750Z,14.30
2019-01-19T12:38:26.779Z,12.50
2019-01-19T12:40:53.877Z,13.50
2019-01-19T12:43:24.724Z,14.05
2019-01-19T12:46:02.450Z,16.70
2019-01-19T12:48:31.884Z,15.10
2019-01-19T12:51:03.201Z,14.53
2019-01-19T12:53:32.640Z,13.48
2019-01-19T12:56:02.154Z,15.38
2019-01-19T12:58:31.619Z,16.63
2019-01-19T13:01:02.263Z,16.60
2019-01-19T13:03:31.745Z,15.93
2019-01-19T13:06:29.040Z,19.75
2019-01-19T13:09:00.912Z,15.95
2019-01-19T13:11:39.887Z,14.30
2019-01-19T13:14:09.307Z,16.85
2019-01-19T13:17:14.246Z,17.62
2019-01-19T13:20:04.800Z,16.13
2019-01-19T13:23:00.817Z,17.45
2019-01-19T13:25:56.604Z,14.60
2019-01-19T13:29:02.814Z,14.80
2019-01-19T13:31:53.574Z,15.68
2019-01-19T13:35:13.346Z,15.30
2019-01-19T13:38:26.729Z,17.60
2019-01-19T13:41:54.147Z,17.98
2019-01-19T13:44:56.768Z,16.25
2019-01-19T13:48:18.497Z,14.58
2019-01-19T13:51:28.805Z,14.40
2019-01-19T13:54:35.222Z,15.00
2019-01-19T13:57:49.229Z,15.78
2019-01-19T14:01:12.899Z,15.38
2019-01-19T14:04:19.339Z,15.78
2019-01-19T14:07:29.071Z,17.20
2019-01-19T14:10:45.801Z,16.97
2019-01-19T14:14:02.984Z,15.95
2019-01-19T14:17:07.473Z,15.65
2019-01-19T14:19:52.133Z,14.43
2019-01-19T14:22:58.681Z,15.57
2019-01-19T14:26:06.970Z,15.68
2019-01-19T14:28:50.496Z,16.50
2019-01-19T14:32:14.132Z,17.02
2019-01-19T14:35:10.582Z,96.10
2019-01-19T14:38:21.727Z,17.27
2019-01-19T14:41:28.192Z,17.15
2019-01-19T14:44:34.448Z,17.00
2019-01-19T14:47:44.604Z,16.73
2019-01-19T14:50:43.390Z,17.10
2019-01-19T14:53:55.826Z,17.40
2019-01-19T14:56:57.970Z,18.27
2019-01-19T14:59:54.770Z,18.07
2019-01-19T15:03:01.226Z,18.05
2019-01-19T15:06:15.406Z,18.05
2019-01-19T15:09:16.563Z,19.23
2019-01-19T15:12:30.501Z,18.80
2019-01-19T15:15:21.487Z,18.30
2019-01-19T15:18:28.542Z,20.37
2019-01-19T15:21:12.006Z,20.47
2019-01-19T15:24:08.652Z,19.70
2019-01-19T15:27:14.709Z,20.43
2019-01-19T15:29:57.658Z,20.43
2019-01-19T15:33:12.174Z,21.87
2019-01-19T15:36:19.266Z,22.62
2019-01-19T15:39:38.807Z,22.15
2019-01-19T15:42:54.294Z,23.60
2019-01-19T15:46:09.435Z,24.05
2019-01-19T15:49:23.753Z,24.07
2019-01-19T15:52:45.629Z,26.55
2019-01-19T15:55:41.065Z,29.40
2019-01-19T15:58:56.290Z,31.27
2019-01-19T16:01:58.690Z,29.55
2019-01-19T16:05:12.226Z,31.50
2019-01-19T16:08:18.558Z,25.23
2019-01-19T16:11:19.260Z,26.75
2019-01-19T16:14:30.271Z,27.95
2019-01-19T16:17:36.493Z,27.40
2019-01-19T16:20:42.041Z,25.62
2019-01-19T16:24:00.293Z,25.75
2019-01-19T16:27:03.416Z,27.22
2019-01-19T16:30:32.198Z,26.23
2019-01-19T16:33:41.013Z,26.65
2019-01-19T16:36:33.798Z,29.98
2019-01-19T16:39:59.391Z,28.07
2019-01-19T16:43:06.480Z,29.87
2019-01-19T16:46:02.266Z,29.77
2019-01-19T16:49:24.892Z,31.37
2019-01-19T16:52:30.575Z,32.78
2019-01-19T16:55:35.865Z,30.37
2019-01-19T16:58:19.209Z,34.83
2019-01-19T17:01:18.157Z,33.90
2019-01-19T17:04:15.221Z,31.48
2019-01-19T17:07:27.307Z,37.93
2019-01-19T17:10:27.904Z,36.27
2019-01-19T17:13:22.226Z,33.23
2019-01-19T17:16:35.781Z,34.20
2019-01-19T17:19:36.835Z,35.95
2019-01-19T17:22:48.007Z,39.67
2019-01-19T17:25:40.101Z,37.70
2019-01-19T17:28:52.933Z,40.17
2019-01-19T17:32:24.618Z,40.12
2019-01-19T17:35:46.943Z,46.77
2019-01-19T17:38:33.289Z,42.60
2019-01-19T17:41:39.765Z,43.97
2019-01-19T17:44:39.303Z,45.03
2019-01-19T17:47:24.995Z,46.05
2019-01-19T17:50:37.572Z,45.15
2019-01-19T17:53:38.122Z,41.23
2019-01-19T17:56:53.062Z,44.75
2019-01-19T18:00:21.685Z,55.48
2019-01-19T18:03:24.604Z,38.95
2019-01-19T18:06:40.512Z,39.73
2019-01-19T18:09:38.813Z,38.50
2019-01-19T18:12:55.504Z,35.90
2019-01-19T18:15:59.612Z,28.27
2019-01-19T18:18:54.322Z,21.93
2019-01-19T18:21:39.498Z,24.10
2019-01-19T18:25:01.285Z,24.47
2019-01-19T18:28:09.265Z,22.32
2019-01-19T18:31:24.792Z,24.90
2019-01-19T18:34:29.843Z,28.83
2019-01-19T18:37:34.449Z,28.38
2019-01-19T18:40:27.002Z,28.40
2019-01-19T18:43:10.363Z,28.23
2019-01-19T18:46:20.266Z,27.05
2019-01-19T18:49:30.765Z,26.50
2019-01-19T18:52:32.020Z,25.25
2019-01-19T18:55:45.517Z,59.67
2019-01-19T18:58:47.934Z,86.87
2019-01-19T19:01:49.965Z,68.50
2019-01-19T19:04:40.080Z,31.57
2019-01-19T19:07:42.112Z,35.23
2019-01-19T19:10:46.311Z,33.73
2019-01-19T19:13:45.440Z,32.65
2019-01-19T19:17:09.329Z,33.23
2019-01-19T19:20:16.480Z,32.55
2019-01-19T19:23:22.991Z,31.93
2019-01-19T19:26:33.425Z,33.42
2019-01-19T19:29:56.073Z,32.15
2019-01-19T19:33:06.780Z,35.43
2019-01-19T19:36:12.960Z,36.93
2019-01-19T19:39:09.404Z,35.52
2019-01-19T19:42:27.851Z,40.05
2019-01-19T19:45:40.556Z,46.25
2019-01-19T19:49:02.799Z,41.98
2019-01-19T19:51:55.525Z,40.50
2019-01-19T19:54:26.315Z,49.93
2019-01-19T19:56:56.038Z,60.20
2019-01-19T19:59:25.601Z,50.05
2019-01-19T20:01:58.380Z,66.05
2019-01-19T20:04:27.940Z,68.60
2019-01-19T20:06:57.622Z,67.95
2019-01-19T20:09:27.574Z,74.42
2019-01-19T20:12:01.783Z,76.25
2019-01-19T20:14:31.287Z,84.00
2019-01-19T20:17:00.713Z,82.95
2019-01-19T20:19:30.295Z,82.87
2019-01-19T20:21:59.853Z,86.17
2019-01-19T20:24:29.352Z,90.60
2019-01-19T20:26:58.846Z,83.07
2019-01-19T20:29:28.346Z,80.10
2019-01-19T20:31:57.884Z,74.12
2019-01-19T20:34:27.300Z,78.70
2019-01-19T20:36:56.741Z,75.40
2019-01-19T20:39:26.316Z,79.05
2019-01-19T20:41:55.796Z,90.95
2019-01-19T20:44:25.224Z,93.62
2019-01-19T20:46:54.723Z,98.58
2019-01-19T20:49:24.206Z,106.78
2019-01-19T20:51:54.509Z,115.12
2019-01-19T20:54:24.022Z,114.97
2019-01-19T20:56:53.688Z,118.67
2019-01-19T20:59:23.135Z,125.40
2019-01-19T21:01:52.693Z,121.42
2019-01-19T21:04:22.175Z,119.65
2019-01-19T21:06:51.753Z,120.45
2019-01-19T21:09:21.439Z,122.75
2019-01-19T21:11:50.992Z,118.28
2019-01-19T21:14:20.423Z,119.47
2019-01-19T21:16:49.948Z,123.62
2019-01-19T21:19:19.448Z,143.55
2019-01-19T21:21:48.970Z,122.77
2019-01-19T21:24:18.449Z,153.57
2019-01-19T21:26:47.918Z,142.22
2019-01-19T21:29:17.466Z,125.38
2019-01-19T21:31:46.977Z,129.05
2019-01-19T21:34:16.470Z,121.90
2019-01-19T21:36:45.946Z,119.35
2019-01-19T21:39:15.443Z,120.90
2019-01-19T21:41:44.899Z,116.15
2019-01-19T21:44:14.388Z,114.67
2019-01-19T21:46:43.825Z,110.83
2019-01-19T21:49:13.354Z,112.30
2019-01-19T21:51:43.211Z,108.87
2019-01-19T21:54:12.728Z,108.03
2019-01-19T21:56:42.187Z,110.03
2019-01-19T21:59:11.628Z,106.65
2019-01-19T22:01:41.163Z,102.17
2019-01-19T22:04:10.626Z,101.70
2019-01-19T22:06:40.097Z,99.05
2019-01-19T22:09:09.582Z,98.15
2019-01-19T22:11:39.021Z,123.27
2019-01-19T22:14:09.808Z,106.07
2019-01-19T22:16:39.280Z,109.67
2019-01-19T22:19:08.795Z,109.03
2019-01-19T22:21:38.250Z,96.55
2019-01-19T22:24:07.980Z,94.13
2019-01-19T22:26:38.138Z,91.78
2019-01-19T22:29:08.701Z,91.53
2019-01-19T22:31:38.558Z,87.25
2019-01-19T22:34:08.022Z,86.45
2019-01-19T22:36:37.637Z,91.45
2019-01-19T22:39:08.391Z,92.42
2019-01-19T22:41:40.652Z,92.15
2019-01-19T22:44:10.122Z,96.37
2019-01-19T22:46:39.571Z,91.20
2019-01-19T22:49:09.059Z,94.67
2019-01-19T22:51:38.695Z,90.25
2019-01-19T22:54:08.182Z,95.95
2019-01-19T22:56:37.659Z,94.77
2019-01-19T22:59:07.119Z,95.05
2019-01-19T23:01:51.638Z,91.37
2019-01-19T23:04:21.142Z,91.63
2019-01-19T23:06:50.694Z,87.92
2019-01-19T23:09:20.132Z,93.40
2019-01-19T23:11:49.566Z,90.53
2019-01-19T23:14:19.110Z,112.97
2019-01-19T23:16:48.624Z,119.28
2019-01-19T23:19:18.036Z,104.03
2019-01-19T23:21:47.463Z,99.65
2019-01-19T23:24:16.944Z,92.10
2019-01-19T23:26:46.689Z,128.50
2019-01-19T23:29:16.281Z,99.15
2019-01-19T23:31:46.201Z,89.35
2019-01-19T23:34:15.672Z,85.77
2019-01-19T23:36:45.547Z,87.90
2019-01-19T23:39:15.014Z,85.63
2019-01-19T23:41:44.427Z,85.65
2019-01-19T23:44:14.031Z,86.15
2019-01-19T23:46:43.807Z,81.70
2019-01-19T23:49:13.352Z,80.77
2019-01-19T23:51:42.901Z,76.97
2019-01-19T23:54:12.345Z,82.80
2019-01-19T23:56:41.815Z,80.75
2019-01-19T23:59:11.372Z,80.17
